FW3955 Weather Reports


Display with metric or nautical units.
time (UTC)temp
F
wind
direction
speed
MPH
gust
MPH
rain 1hr
in
rain 24hr
in
rain mn
in
humidity
%
barometer
mb
20190819061514 64 322 0.0 1.0 0.00 0.00 0.00 90 1015.3
20190819060004 64 322 0.0 1.0 0.00 0.00 0.00 90 1015.3
20190819054503 64 321 0.0 1.0 0.00 0.00 0.00 90 1015.3
20190819053023 64 322 2.0 4.0 0.00 0.00 0.00 90 1015.4
20190819051507 64 321 0.0 2.0 0.00 0.00 0.00 91 1015.4
20190819050005 64 321 0.0 2.0 0.00 0.00 0.00 91 1015.3
20190819041718 64 322 0.0 2.0 0.00 0.00 0.00 92 1015.4
20190819040142 64 322 3.0 8.0 0.00 0.00 0.00 92 1015.4
20190819034612 64 315 1.0 6.0 0.00 0.00 0.00 93 1015.5
20190819033127 63 315 1.0 8.0 0.00 0.00 0.00 93 1015.4
20190819031619 63 310 1.0 4.0 0.00 0.00 0.00 93 1015.4
20190819030213 63 310 1.0 4.0 0.00 0.00 0.00 93 1015.3
20190819024631 63 310 3.0 8.0 0.00 0.00 0.00 93 1015.3
20190819023059 63 309 1.0 6.0 0.00 0.00 0.00 93 1015.2
20190819021611 63 319 2.0 5.0 0.00 0.00 0.00 93 1015.2
20190819020225 63 317 2.0 6.0 0.00 0.00 0.00 93 1015.4
20190819014612 64 317 3.0 4.0 0.00 0.00 0.00 93 1015.4
20190819013131 64 315 1.0 6.0 0.00 0.00 0.00 93 1015.5
20190819011557 63 282 3.0 7.0 0.00 0.00 0.00 93 1015.5
20190819010220 62 277 0.0 4.0 0.00 0.00 0.00 93 1015.6
20190819004634 62 277 1.0 4.0 0.00 0.00 0.00 92 1015.7
20190819003133 62 276 2.0 3.0 0.00 0.00 0.00 92 1015.9
20190819001601 62 276 1.0 2.0 0.00 0.00 0.00 92 1016.0
20190819000113 63 276 1.0 3.0 0.00 0.00 0.00 92 1015.9
20190818234641 63 281 1.0 3.0 0.00 0.00 0.00 92 1016.0
20190818233109 63 284 0.0 2.0 0.00 0.00 0.00 92 1016.0
20190818231546 63 284 1.0 3.0 0.00 0.00 0.00 91 1016.1
20190818230117 63 284 2.0 4.0 0.00 0.00 0.00 91 1016.1
20190818224556 63 284 1.0 2.0 0.00 0.00 0.00 91 1016.4
20190818223037 63 284 1.0 3.0 0.00 0.00 0.00 90 1016.4
20190818221545 64 284 1.0 2.0 0.00 0.00 0.00 90 1016.2
20190818220030 64 284 1.0 3.0 0.00 0.00 0.00 89 1016.3
20190818214621 64 284 1.0 4.0 0.00 0.00 0.00 89 1016.4
20190818213037 65 284 2.0 4.0 0.00 0.00 0.00 89 1016.2
20190818211542 65 284 2.0 4.0 0.00 0.00 0.00 89 1016.1
20190818210039 65 312 1.0 3.0 0.00 0.00 0.00 88 1016.0
20190818204706 66 312 2.0 3.0 0.00 0.00 0.00 88 1015.7
20190818203032 66 312 0.0 2.0 0.00 0.00 0.00 87 1015.6
20190818201540 67 312 0.0 2.0 0.00 0.00 0.00 86 1015.4
20190818200042 67 312 0.0 4.0 0.00 0.00 0.00 86 1015.2
20190818194540 68 311 1.0 5.0 0.00 0.00 0.00 85 1015.1
20190818193112 68 318 3.0 5.0 0.00 0.00 0.00 84 1014.9
20190818191554 69 322 3.0 5.0 0.00 0.00 0.00 82 1014.7
20190818190035 70 320 4.0 6.0 0.00 0.00 0.00 80 1014.5
20190818184522 71 342 5.0 12.0 0.00 0.00 0.00 77 1014.2
20190818183025 72 325 5.0 11.0 0.00 0.00 0.00 74 1014.1
20190818181527 73 343 9.0 15.0 0.00 0.00 0.00 71 1014.0
20190818180033 75 324 12.0 17.0 0.00 0.00 0.00 68 1013.8
20190818174512 76 319 12.0 17.0 0.00 0.00 0.00 64 1013.8
20190818173027 77 319 10.0 15.0 0.00 0.00 0.00 55 1013.9
20190818171538 79 309 11.0 14.0 0.00 0.00 0.00 51 1014.1
20190818170011 79 330 10.0 15.0 0.00 0.00 0.00 50 1014.0
20190818163037 81 302 10.0 15.0 0.00 0.00 0.00 53 1014.1
20190818161519 81 321 10.0 14.0 0.00 0.00 0.00 51 1014.1
20190818160010 81 320 9.0 15.0 0.00 0.00 0.00 52 1014.0
20190818154511 81 319 11.0 16.0 0.00 0.00 0.00 53 1013.9
20190818153008 81 303 10.0 15.0 0.00 0.00 0.00 54 1013.9
20190818151510 82 328 9.0 16.0 0.00 0.00 0.00 53 1014.0
20190818150018 82 339 12.0 16.0 0.00 0.00 0.00 52 1014.2
20190818144508 83 292 11.0 17.0 0.00 0.00 0.00 51 1014.3
20190818143012 84 306 9.0 14.0 0.00 0.00 0.00 50 1014.4
20190818141502 85 333 7.0 15.0 0.00 0.00 0.00 49 1014.4
20190818140002 84 317 8.0 13.0 0.00 0.00 0.00 50 1014.4
20190818134504 84 325 10.0 15.0 0.00 0.00 0.00 50 1014.5
20190818133001 85 303 8.0 13.0 0.00 0.00 0.00 50 1014.5
20190818130207 85 325 10.0 14.0 0.00 0.00 0.00 51 1014.6
20190818124732 84 311 8.0 14.0 0.00 0.00 0.00 52 1014.7
20190818123323 85 294 7.0 12.0 0.00 0.00 0.00 50 1014.9
20190818121716 84 289 5.0 11.0 0.00 0.00 0.00 51 1015.1
20190818120128 84 279 7.0 12.0 0.00 0.00 0.00 50 1015.1
20190818114656 83 360 3.0 11.0 0.00 0.00 0.00 52 1015.2
20190818113203 82 336 5.0 11.0 0.00 0.00 0.00 52 1015.3
20190818111608 82 273 3.0 7.0 0.00 0.00 0.00 53 1015.5
20190818110144 81 267 4.0 8.0 0.00 0.00 0.00 53 1015.4
20190818104547 80 296 3.0 12.0 0.00 0.00 0.00 56 1015.5
20190818103058 78 311 1.0 8.0 0.00 0.00 0.00 62 1015.5
20190818101554 76 265 2.0 8.0 0.00 0.00 0.00 63 1015.7
20190818100050 76 265 4.0 8.0 0.00 0.00 0.00 69 1015.6
20190818094547 74 257 4.0 8.0 0.00 0.00 0.00 72 1015.5
20190818093038 72 271 2.0 7.0 0.00 0.00 0.00 78 1015.3
20190818091513 71 262 1.0 7.0 0.00 0.00 0.00 83 1015.2
20190818090006 69 262 2.0 7.0 0.00 0.00 0.00 89 1015.2
20190818084727 68 274 4.0 8.0 0.00 0.00 0.00 91 1015.2
20190818083124 67 254 5.0 8.0 0.00 0.00 0.00 93 1015.2
20190818081636 65 279 6.0 12.0 0.00 0.00 0.00 93 1015.1
20190818080113 65 260 6.0 11.0 0.00 0.00 0.00 93 1014.9
20190818074620 65 270 6.0 9.0 0.00 0.00 0.00 93 1014.9
20190818073104 65 286 5.0 9.0 0.00 0.00 0.00 93 1014.6
20190818071609 65 265 6.0 9.0 0.00 0.00 0.00 93 1014.4
20190818070113 65 281 7.0 10.0 0.00 0.00 0.00 93 1014.2
20190818064622 65 267 8.0 11.0 0.00 0.00 0.00 93 1014.0
20190818063139 65 277 7.0 10.0 0.00 0.00 0.00 93 1013.9